sensor_id;sensor_type;location;lat;lon;timestamp;P1;durP1;ratioP1;P2;durP2;ratioP2
66972;SDS011;53902;51.466;-2.586;2023-03-16T00:00:52;13.13;;;2.67;;
66972;SDS011;53902;51.466;-2.586;2023-03-16T00:03:25;14.98;;;2.50;;
66972;SDS011;53902;51.466;-2.586;2023-03-16T00:05:54;15.50;;;3.28;;
66972;SDS011;53902;51.466;-2.586;2023-03-16T00:08:22;13.40;;;2.72;;
66972;SDS011;53902;51.466;-2.586;2023-03-16T00:10:48;12.50;;;2.00;;
66972;SDS011;53902;51.466;-2.586;2023-03-16T00:13:14;5.10;;;2.10;;
66972;SDS011;53902;51.466;-2.586;2023-03-16T00:15:40;6.47;;;2.22;;
66972;SDS011;53902;51.466;-2.586;2023-03-16T00:18:06;10.20;;;2.07;;
66972;SDS011;53902;51.466;-2.586;2023-03-16T00:20:32;8.25;;;2.00;;
66972;SDS011;53902;51.466;-2.586;2023-03-16T00:22:57;6.85;;;1.70;;
66972;SDS011;53902;51.466;-2.586;2023-03-16T00:25:26;9.63;;;1.88;;
66972;SDS011;53902;51.466;-2.586;2023-03-16T00:27:52;6.20;;;2.00;;
66972;SDS011;53902;51.466;-2.586;2023-03-16T00:30:19;4.82;;;1.50;;
66972;SDS011;53902;51.466;-2.586;2023-03-16T00:32:46;11.40;;;2.15;;
66972;SDS011;53902;51.466;-2.586;2023-03-16T00:35:19;13.75;;;2.00;;
66972;SDS011;53902;51.466;-2.586;2023-03-16T00:37:55;9.63;;;2.47;;
66972;SDS011;53902;51.466;-2.586;2023-03-16T00:40:23;11.32;;;2.47;;
66972;SDS011;53902;51.466;-2.586;2023-03-16T00:42:51;9.23;;;2.40;;
66972;SDS011;53902;51.466;-2.586;2023-03-16T00:45:19;11.70;;;2.50;;
66972;SDS011;53902;51.466;-2.586;2023-03-16T00:47:44;14.20;;;3.05;;
66972;SDS011;53902;51.466;-2.586;2023-03-16T00:50:12;14.82;;;2.80;;
66972;SDS011;53902;51.466;-2.586;2023-03-16T00:52:40;9.88;;;2.65;;
66972;SDS011;53902;51.466;-2.586;2023-03-16T00:55:06;17.35;;;2.75;;
66972;SDS011;53902;51.466;-2.586;2023-03-16T00:57:32;16.03;;;2.90;;
66972;SDS011;53902;51.466;-2.586;2023-03-16T01:00:00;15.25;;;3.13;;
66972;SDS011;53902;51.466;-2.586;2023-03-16T01:02:36;15.55;;;2.38;;
66972;SDS011;53902;51.466;-2.586;2023-03-16T01:05:02;16.13;;;2.90;;
66972;SDS011;53902;51.466;-2.586;2023-03-16T01:07:37;9.73;;;1.92;;
66972;SDS011;53902;51.466;-2.586;2023-03-16T01:10:11;15.63;;;2.45;;
66972;SDS011;53902;51.466;-2.586;2023-03-16T01:12:39;9.88;;;2.10;;
66972;SDS011;53902;51.466;-2.586;2023-03-16T01:15:04;15.65;;;2.55;;
66972;SDS011;53902;51.466;-2.586;2023-03-16T01:17:33;18.63;;;2.20;;
66972;SDS011;53902;51.466;-2.586;2023-03-16T01:20:16;14.82;;;2.13;;
66972;SDS011;53902;51.466;-2.586;2023-03-16T01:22:44;12.32;;;2.40;;
66972;SDS011;53902;51.466;-2.586;2023-03-16T01:25:17;12.05;;;2.10;;
66972;SDS011;53902;51.466;-2.586;2023-03-16T01:27:45;11.82;;;2.10;;
66972;SDS011;53902;51.466;-2.586;2023-03-16T01:30:15;12.75;;;1.90;;
66972;SDS011;53902;51.466;-2.586;2023-03-16T01:32:41;11.80;;;1.80;;
66972;SDS011;53902;51.466;-2.586;2023-03-16T01:35:06;11.18;;;2.17;;
66972;SDS011;53902;51.466;-2.586;2023-03-16T01:37:32;7.57;;;1.92;;
66972;SDS011;53902;51.466;-2.586;2023-03-16T01:40:00;15.07;;;2.35;;
66972;SDS011;53902;51.466;-2.586;2023-03-16T01:42:26;9.68;;;2.00;;
66972;SDS011;53902;51.466;-2.586;2023-03-16T01:45:00;9.18;;;1.80;;
66972;SDS011;53902;51.466;-2.586;2023-03-16T01:47:32;11.73;;;2.40;;
66972;SDS011;53902;51.466;-2.586;2023-03-16T01:50:03;11.57;;;2.15;;
66972;SDS011;53902;51.466;-2.586;2023-03-16T01:52:31;15.85;;;1.90;;
66972;SDS011;53902;51.466;-2.586;2023-03-16T01:55:02;16.20;;;2.13;;
66972;SDS011;53902;51.466;-2.586;2023-03-16T01:57:31;14.68;;;2.17;;
66972;SDS011;53902;51.466;-2.586;2023-03-16T02:00:11;14.32;;;2.17;;
66972;SDS011;53902;51.466;-2.586;2023-03-16T02:02:51;11.15;;;1.80;;
66972;SDS011;53902;51.466;-2.586;2023-03-16T02:05:22;10.15;;;1.75;;
66972;SDS011;53902;51.466;-2.586;2023-03-16T02:07:57;14.27;;;1.83;;
66972;SDS011;53902;51.466;-2.586;2023-03-16T02:10:23;9.95;;;1.70;;
66972;SDS011;53902;51.466;-2.586;2023-03-16T02:15:16;10.40;;;1.35;;
66972;SDS011;53902;51.466;-2.586;2023-03-16T02:17:43;9.97;;;1.83;;
66972;SDS011;53902;51.466;-2.586;2023-03-16T02:23:18;8.35;;;1.73;;
66972;SDS011;53902;51.466;-2.586;2023-03-16T02:28:33;11.85;;;1.80;;
66972;SDS011;53902;51.466;-2.586;2023-03-16T02:31:02;10.93;;;1.80;;
66972;SDS011;53902;51.466;-2.586;2023-03-16T02:33:28;12.67;;;2.00;;
66972;SDS011;53902;51.466;-2.586;2023-03-16T02:35:55;13.60;;;1.90;;
66972;SDS011;53902;51.466;-2.586;2023-03-16T02:38:21;18.67;;;2.30;;
66972;SDS011;53902;51.466;-2.586;2023-03-16T02:40:52;13.00;;;1.63;;
66972;SDS011;53902;51.466;-2.586;2023-03-16T02:43:23;12.50;;;1.98;;
66972;SDS011;53902;51.466;-2.586;2023-03-16T02:45:57;11.07;;;2.00;;
66972;SDS011;53902;51.466;-2.586;2023-03-16T02:48:31;12.15;;;1.98;;
66972;SDS011;53902;51.466;-2.586;2023-03-16T02:50:59;14.75;;;1.90;;
66972;SDS011;53902;51.466;-2.586;2023-03-16T02:53:27;15.18;;;2.03;;
66972;SDS011;53902;51.466;-2.586;2023-03-16T02:55:52;17.58;;;2.25;;
66972;SDS011;53902;51.466;-2.586;2023-03-16T02:58:18;14.68;;;1.77;;
66972;SDS011;53902;51.466;-2.586;2023-03-16T03:00:51;12.18;;;2.20;;
66972;SDS011;53902;51.466;-2.586;2023-03-16T03:03:21;12.70;;;2.00;;
66972;SDS011;53902;51.466;-2.586;2023-03-16T03:05:47;13.25;;;1.80;;
66972;SDS011;53902;51.466;-2.586;2023-03-16T03:08:13;11.13;;;2.00;;
66972;SDS011;53902;51.466;-2.586;2023-03-16T03:10:38;9.88;;;2.00;;
66972;SDS011;53902;51.466;-2.586;2023-03-16T03:13:07;15.93;;;2.00;;
66972;SDS011;53902;51.466;-2.586;2023-03-16T03:15:32;11.65;;;1.67;;
66972;SDS011;53902;51.466;-2.586;2023-03-16T03:18:01;7.45;;;1.45;;
66972;SDS011;53902;51.466;-2.586;2023-03-16T03:20:26;12.40;;;1.65;;
66972;SDS011;53902;51.466;-2.586;2023-03-16T03:22:52;6.38;;;1.48;;
66972;SDS011;53902;51.466;-2.586;2023-03-16T03:25:18;8.43;;;1.48;;
66972;SDS011;53902;51.466;-2.586;2023-03-16T03:27:44;9.48;;;1.70;;
66972;SDS011;53902;51.466;-2.586;2023-03-16T03:30:11;8.05;;;1.70;;
66972;SDS011;53902;51.466;-2.586;2023-03-16T03:32:38;7.05;;;1.52;;
66972;SDS011;53902;51.466;-2.586;2023-03-16T03:35:12;5.40;;;1.40;;
66972;SDS011;53902;51.466;-2.586;2023-03-16T03:37:39;7.13;;;1.40;;
66972;SDS011;53902;51.466;-2.586;2023-03-16T03:40:07;6.43;;;1.42;;
66972;SDS011;53902;51.466;-2.586;2023-03-16T03:42:34;10.07;;;1.40;;
66972;SDS011;53902;51.466;-2.586;2023-03-16T03:45:02;3.63;;;1.45;;
66972;SDS011;53902;51.466;-2.586;2023-03-16T03:47:27;6.95;;;1.40;;
66972;SDS011;53902;51.466;-2.586;2023-03-16T03:49:55;11.27;;;1.70;;
66972;SDS011;53902;51.466;-2.586;2023-03-16T03:52:21;5.07;;;1.27;;
66972;SDS011;53902;51.466;-2.586;2023-03-16T03:54:48;6.75;;;1.90;;
66972;SDS011;53902;51.466;-2.586;2023-03-16T03:57:16;7.70;;;1.60;;
66972;SDS011;53902;51.466;-2.586;2023-03-16T03:59:42;3.78;;;1.10;;
66972;SDS011;53902;51.466;-2.586;2023-03-16T04:02:11;8.07;;;1.73;;
66972;SDS011;53902;51.466;-2.586;2023-03-16T04:04:37;12.48;;;1.50;;
66972;SDS011;53902;51.466;-2.586;2023-03-16T04:07:10;11.88;;;1.70;;
66972;SDS011;53902;51.466;-2.586;2023-03-16T04:09:36;10.63;;;1.92;;
66972;SDS011;53902;51.466;-2.586;2023-03-16T04:12:04;8.38;;;2.30;;
66972;SDS011;53902;51.466;-2.586;2023-03-16T04:14:30;8.90;;;1.70;;
66972;SDS011;53902;51.466;-2.586;2023-03-16T04:16:58;11.02;;;2.03;;
66972;SDS011;53902;51.466;-2.586;2023-03-16T04:19:24;11.75;;;1.90;;
66972;SDS011;53902;51.466;-2.586;2023-03-16T04:21:52;12.18;;;1.77;;
66972;SDS011;53902;51.466;-2.586;2023-03-16T04:24:18;8.77;;;1.80;;
66972;SDS011;53902;51.466;-2.586;2023-03-16T04:26:43;12.40;;;1.80;;
66972;SDS011;53902;51.466;-2.586;2023-03-16T04:29:10;11.43;;;1.70;;
66972;SDS011;53902;51.466;-2.586;2023-03-16T04:31:45;22.98;;;3.40;;
66972;SDS011;53902;51.466;-2.586;2023-03-16T04:34:11;12.02;;;3.22;;
66972;SDS011;53902;51.466;-2.586;2023-03-16T04:36:39;22.45;;;2.90;;
66972;SDS011;53902;51.466;-2.586;2023-03-16T04:39:07;14.55;;;2.67;;
66972;SDS011;53902;51.466;-2.586;2023-03-16T04:41:34;19.23;;;1.90;;
66972;SDS011;53902;51.466;-2.586;2023-03-16T04:44:02;10.98;;;2.72;;
66972;SDS011;53902;51.466;-2.586;2023-03-16T04:46:33;8.70;;;2.10;;
66972;SDS011;53902;51.466;-2.586;2023-03-16T04:49:01;15.55;;;2.40;;
66972;SDS011;53902;51.466;-2.586;2023-03-16T04:51:36;10.00;;;1.80;;
66972;SDS011;53902;51.466;-2.586;2023-03-16T04:54:02;11.30;;;2.15;;
66972;SDS011;53902;51.466;-2.586;2023-03-16T04:56:28;14.77;;;1.67;;
66972;SDS011;53902;51.466;-2.586;2023-03-16T04:58:56;8.55;;;1.60;;
66972;SDS011;53902;51.466;-2.586;2023-03-16T05:01:21;13.68;;;1.40;;
66972;SDS011;53902;51.466;-2.586;2023-03-16T05:03:47;11.57;;;1.77;;
66972;SDS011;53902;51.466;-2.586;2023-03-16T05:06:19;9.43;;;1.45;;
66972;SDS011;53902;51.466;-2.586;2023-03-16T05:08:45;5.57;;;1.42;;
66972;SDS011;53902;51.466;-2.586;2023-03-16T05:11:10;6.35;;;1.17;;
66972;SDS011;53902;51.466;-2.586;2023-03-16T05:13:35;5.28;;;1.40;;
66972;SDS011;53902;51.466;-2.586;2023-03-16T05:16:01;7.15;;;1.58;;
66972;SDS011;53902;51.466;-2.586;2023-03-16T05:18:34;9.68;;;1.67;;
66972;SDS011;53902;51.466;-2.586;2023-03-16T05:21:04;5.78;;;1.40;;
66972;SDS011;53902;51.466;-2.586;2023-03-16T05:23:32;6.72;;;1.55;;
66972;SDS011;53902;51.466;-2.586;2023-03-16T05:26:00;11.00;;;1.60;;
66972;SDS011;53902;51.466;-2.586;2023-03-16T05:28:26;7.47;;;1.60;;
66972;SDS011;53902;51.466;-2.586;2023-03-16T05:30:55;10.00;;;2.88;;
66972;SDS011;53902;51.466;-2.586;2023-03-16T05:33:20;11.50;;;1.70;;
66972;SDS011;53902;51.466;-2.586;2023-03-16T05:35:49;10.90;;;1.40;;
66972;SDS011;53902;51.466;-2.586;2023-03-16T05:38:16;12.50;;;1.60;;
66972;SDS011;53902;51.466;-2.586;2023-03-16T05:40:42;11.52;;;2.17;;
66972;SDS011;53902;51.466;-2.586;2023-03-16T05:43:07;11.35;;;2.10;;
66972;SDS011;53902;51.466;-2.586;2023-03-16T05:45:35;12.90;;;2.28;;
66972;SDS011;53902;51.466;-2.586;2023-03-16T05:48:01;17.70;;;2.15;;
66972;SDS011;53902;51.466;-2.586;2023-03-16T05:50:29;10.90;;;2.40;;
66972;SDS011;53902;51.466;-2.586;2023-03-16T05:52:57;15.80;;;2.40;;
66972;SDS011;53902;51.466;-2.586;2023-03-16T05:55:23;11.93;;;2.25;;
66972;SDS011;53902;51.466;-2.586;2023-03-16T05:57:51;14.98;;;2.50;;
66972;SDS011;53902;51.466;-2.586;2023-03-16T06:00:19;15.43;;;2.42;;
66972;SDS011;53902;51.466;-2.586;2023-03-16T06:02:45;20.67;;;2.85;;
66972;SDS011;53902;51.466;-2.586;2023-03-16T06:05:18;14.85;;;2.25;;
66972;SDS011;53902;51.466;-2.586;2023-03-16T06:07:45;14.75;;;2.10;;
66972;SDS011;53902;51.466;-2.586;2023-03-16T06:10:12;7.00;;;1.77;;
66972;SDS011;53902;51.466;-2.586;2023-03-16T06:12:47;10.80;;;2.00;;
66972;SDS011;53902;51.466;-2.586;2023-03-16T06:15:13;20.52;;;2.55;;
66972;SDS011;53902;51.466;-2.586;2023-03-16T06:17:39;12.15;;;2.17;;
66972;SDS011;53902;51.466;-2.586;2023-03-16T06:20:07;13.40;;;2.35;;
66972;SDS011;53902;51.466;-2.586;2023-03-16T06:22:40;10.90;;;1.80;;
66972;SDS011;53902;51.466;-2.586;2023-03-16T06:25:11;10.75;;;1.80;;
66972;SDS011;53902;51.466;-2.586;2023-03-16T06:30:09;20.15;;;2.60;;
66972;SDS011;53902;51.466;-2.586;2023-03-16T06:32:42;18.13;;;2.47;;
66972;SDS011;53902;51.466;-2.586;2023-03-16T06:35:09;16.05;;;2.22;;
66972;SDS011;53902;51.466;-2.586;2023-03-16T06:37:38;11.65;;;2.25;;
66972;SDS011;53902;51.466;-2.586;2023-03-16T06:40:03;12.90;;;2.22;;
66972;SDS011;53902;51.466;-2.586;2023-03-16T06:42:29;11.97;;;2.20;;
66972;SDS011;53902;51.466;-2.586;2023-03-16T06:44:58;19.48;;;2.38;;
66972;SDS011;53902;51.466;-2.586;2023-03-16T06:47:28;12.80;;;2.10;;
66972;SDS011;53902;51.466;-2.586;2023-03-16T06:49:56;11.55;;;2.00;;
66972;SDS011;53902;51.466;-2.586;2023-03-16T06:52:22;14.98;;;2.25;;
66972;SDS011;53902;51.466;-2.586;2023-03-16T06:54:47;11.55;;;2.40;;
66972;SDS011;53902;51.466;-2.586;2023-03-16T06:57:13;9.90;;;2.15;;
66972;SDS011;53902;51.466;-2.586;2023-03-16T06:59:40;9.82;;;2.10;;
66972;SDS011;53902;51.466;-2.586;2023-03-16T07:02:06;17.38;;;2.63;;
66972;SDS011;53902;51.466;-2.586;2023-03-16T07:04:31;7.97;;;2.25;;
66972;SDS011;53902;51.466;-2.586;2023-03-16T07:06:58;17.33;;;2.22;;
66972;SDS011;53902;51.466;-2.586;2023-03-16T07:09:23;14.93;;;2.65;;
66972;SDS011;53902;51.466;-2.586;2023-03-16T07:11:49;13.85;;;2.03;;
66972;SDS011;53902;51.466;-2.586;2023-03-16T07:14:15;10.95;;;2.13;;
66972;SDS011;53902;51.466;-2.586;2023-03-16T07:16:41;20.38;;;2.83;;
66972;SDS011;53902;51.466;-2.586;2023-03-16T07:19:09;14.13;;;1.95;;
66972;SDS011;53902;51.466;-2.586;2023-03-16T07:21:38;13.52;;;2.20;;
66972;SDS011;53902;51.466;-2.586;2023-03-16T07:24:05;17.48;;;2.65;;
66972;SDS011;53902;51.466;-2.586;2023-03-16T07:26:38;13.68;;;1.92;;
66972;SDS011;53902;51.466;-2.586;2023-03-16T07:29:06;13.50;;;2.58;;
66972;SDS011;53902;51.466;-2.586;2023-03-16T07:31:36;9.23;;;2.63;;
66972;SDS011;53902;51.466;-2.586;2023-03-16T07:34:03;16.90;;;2.30;;
66972;SDS011;53902;51.466;-2.586;2023-03-16T07:36:29;14.55;;;2.20;;
66972;SDS011;53902;51.466;-2.586;2023-03-16T07:38:54;16.35;;;2.53;;
66972;SDS011;53902;51.466;-2.586;2023-03-16T07:41:20;13.65;;;2.70;;
66972;SDS011;53902;51.466;-2.586;2023-03-16T07:43:46;11.68;;;2.20;;
66972;SDS011;53902;51.466;-2.586;2023-03-16T07:46:11;14.05;;;2.20;;
66972;SDS011;53902;51.466;-2.586;2023-03-16T07:48:47;10.82;;;2.38;;
66972;SDS011;53902;51.466;-2.586;2023-03-16T07:51:12;14.02;;;2.20;;
66972;SDS011;53902;51.466;-2.586;2023-03-16T07:53:38;15.45;;;2.70;;
66972;SDS011;53902;51.466;-2.586;2023-03-16T07:56:07;11.55;;;2.33;;
66972;SDS011;53902;51.466;-2.586;2023-03-16T07:58:54;15.50;;;2.50;;
66972;SDS011;53902;51.466;-2.586;2023-03-16T08:01:19;21.27;;;2.35;;
66972;SDS011;53902;51.466;-2.586;2023-03-16T08:03:44;14.80;;;2.28;;
66972;SDS011;53902;51.466;-2.586;2023-03-16T08:06:15;14.50;;;3.10;;
66972;SDS011;53902;51.466;-2.586;2023-03-16T08:08:49;15.77;;;2.47;;
66972;SDS011;53902;51.466;-2.586;2023-03-16T08:11:19;11.52;;;2.70;;
66972;SDS011;53902;51.466;-2.586;2023-03-16T08:13:55;11.13;;;2.42;;
66972;SDS011;53902;51.466;-2.586;2023-03-16T08:16:25;15.38;;;2.17;;
66972;SDS011;53902;51.466;-2.586;2023-03-16T08:18:54;16.23;;;2.55;;
66972;SDS011;53902;51.466;-2.586;2023-03-16T08:21:21;11.38;;;2.30;;
66972;SDS011;53902;51.466;-2.586;2023-03-16T08:23:50;7.35;;;2.10;;
66972;SDS011;53902;51.466;-2.586;2023-03-16T08:26:16;13.75;;;2.08;;
66972;SDS011;53902;51.466;-2.586;2023-03-16T08:28:43;13.38;;;1.95;;
66972;SDS011;53902;51.466;-2.586;2023-03-16T08:31:10;10.30;;;2.40;;
66972;SDS011;53902;51.466;-2.586;2023-03-16T08:33:36;8.27;;;1.80;;
66972;SDS011;53902;51.466;-2.586;2023-03-16T08:36:04;8.02;;;1.90;;
66972;SDS011;53902;51.466;-2.586;2023-03-16T08:38:33;12.48;;;2.25;;
66972;SDS011;53902;51.466;-2.586;2023-03-16T08:41:01;8.82;;;2.22;;
66972;SDS011;53902;51.466;-2.586;2023-03-16T08:43:30;13.15;;;2.00;;
66972;SDS011;53902;51.466;-2.586;2023-03-16T08:45:55;9.02;;;1.70;;
66972;SDS011;53902;51.466;-2.586;2023-03-16T08:48:21;9.20;;;1.75;;
66972;SDS011;53902;51.466;-2.586;2023-03-16T08:50:50;8.02;;;1.70;;
66972;SDS011;53902;51.466;-2.586;2023-03-16T08:53:16;9.35;;;1.98;;
66972;SDS011;53902;51.466;-2.586;2023-03-16T08:55:46;13.00;;;1.92;;
66972;SDS011;53902;51.466;-2.586;2023-03-16T08:58:12;26.40;;;2.67;;
66972;SDS011;53902;51.466;-2.586;2023-03-16T09:00:38;9.30;;;1.52;;
66972;SDS011;53902;51.466;-2.586;2023-03-16T09:03:06;8.50;;;1.38;;
66972;SDS011;53902;51.466;-2.586;2023-03-16T09:05:32;11.30;;;1.73;;
66972;SDS011;53902;51.466;-2.586;2023-03-16T09:08:04;6.57;;;1.70;;
66972;SDS011;53902;51.466;-2.586;2023-03-16T09:10:30;9.43;;;2.13;;
66972;SDS011;53902;51.466;-2.586;2023-03-16T09:13:00;14.98;;;1.98;;
66972;SDS011;53902;51.466;-2.586;2023-03-16T09:15:33;6.30;;;1.40;;
66972;SDS011;53902;51.466;-2.586;2023-03-16T09:18:00;10.68;;;1.90;;
66972;SDS011;53902;51.466;-2.586;2023-03-16T09:20:27;14.13;;;1.75;;
66972;SDS011;53902;51.466;-2.586;2023-03-16T09:46:41;9.63;;;1.88;;
66972;SDS011;53902;51.466;-2.586;2023-03-16T10:00:09;11.52;;;1.75;;
66972;SDS011;53902;51.466;-2.586;2023-03-16T10:48:31;5.78;;;1.50;;
66972;SDS011;53902;51.466;-2.586;2023-03-16T10:51:11;10.93;;;1.27;;
66972;SDS011;53902;51.466;-2.586;2023-03-16T10:53:39;13.98;;;1.50;;
66972;SDS011;53902;51.466;-2.586;2023-03-16T10:56:17;9.65;;;1.42;;
66972;SDS011;53902;51.466;-2.586;2023-03-16T10:58:47;5.38;;;1.25;;
66972;SDS011;53902;51.466;-2.586;2023-03-16T11:03:47;11.85;;;1.92;;
66972;SDS011;53902;51.466;-2.586;2023-03-16T11:06:26;10.10;;;1.48;;
66972;SDS011;53902;51.466;-2.586;2023-03-16T11:09:03;9.18;;;1.48;;
66972;SDS011;53902;51.466;-2.586;2023-03-16T11:11:32;9.60;;;1.30;;
66972;SDS011;53902;51.466;-2.586;2023-03-16T11:13:59;5.63;;;1.20;;
66972;SDS011;53902;51.466;-2.586;2023-03-16T11:16:29;9.15;;;1.77;;
66972;SDS011;53902;51.466;-2.586;2023-03-16T11:18:59;13.35;;;1.52;;
66972;SDS011;53902;51.466;-2.586;2023-03-16T11:21:36;8.43;;;1.42;;
66972;SDS011;53902;51.466;-2.586;2023-03-16T11:24:08;12.00;;;1.38;;
66972;SDS011;53902;51.466;-2.586;2023-03-16T11:26:57;8.43;;;1.45;;
66972;SDS011;53902;51.466;-2.586;2023-03-16T11:29:37;8.70;;;1.27;;
66972;SDS011;53902;51.466;-2.586;2023-03-16T11:32:16;11.80;;;1.60;;
66972;SDS011;53902;51.466;-2.586;2023-03-16T11:34:44;9.15;;;1.73;;
66972;SDS011;53902;51.466;-2.586;2023-03-16T11:37:14;8.07;;;1.40;;
66972;SDS011;53902;51.466;-2.586;2023-03-16T11:40:19;11.68;;;1.50;;
66972;SDS011;53902;51.466;-2.586;2023-03-16T11:45:45;12.77;;;1.80;;
66972;SDS011;53902;51.466;-2.586;2023-03-16T11:54:12;9.98;;;1.90;;
66972;SDS011;53902;51.466;-2.586;2023-03-16T11:57:29;8.85;;;1.75;;
66972;SDS011;53902;51.466;-2.586;2023-03-16T11:59:49;12.20;;;2.00;;
66972;SDS011;53902;51.466;-2.586;2023-03-16T12:11:24;6.68;;;1.83;;
66972;SDS011;53902;51.466;-2.586;2023-03-16T12:16:58;9.82;;;2.20;;
66972;SDS011;53902;51.466;-2.586;2023-03-16T12:19:49;13.88;;;1.80;;
66972;SDS011;53902;51.466;-2.586;2023-03-16T12:22:28;8.85;;;1.50;;
66972;SDS011;53902;51.466;-2.586;2023-03-16T12:24:57;9.73;;;1.77;;
66972;SDS011;53902;51.466;-2.586;2023-03-16T12:27:24;11.35;;;1.80;;
66972;SDS011;53902;51.466;-2.586;2023-03-16T12:41:15;5.50;;;1.60;;
66972;SDS011;53902;51.466;-2.586;2023-03-16T12:46:58;8.52;;;1.80;;
66972;SDS011;53902;51.466;-2.586;2023-03-16T12:49:45;5.07;;;1.20;;
66972;SDS011;53902;51.466;-2.586;2023-03-16T12:52:13;11.48;;;1.83;;
66972;SDS011;53902;51.466;-2.586;2023-03-16T12:54:48;10.10;;;2.15;;
66972;SDS011;53902;51.466;-2.586;2023-03-16T12:57:18;7.22;;;1.70;;
66972;SDS011;53902;51.466;-2.586;2023-03-16T12:59:54;8.75;;;2.10;;
66972;SDS011;53902;51.466;-2.586;2023-03-16T13:02:29;12.15;;;2.20;;
66972;SDS011;53902;51.466;-2.586;2023-03-16T13:04:58;4.93;;;2.10;;
66972;SDS011;53902;51.466;-2.586;2023-03-16T13:07:26;15.13;;;2.25;;
66972;SDS011;53902;51.466;-2.586;2023-03-16T13:10:18;8.65;;;1.73;;
66972;SDS011;53902;51.466;-2.586;2023-03-16T13:12:45;12.00;;;2.53;;
66972;SDS011;53902;51.466;-2.586;2023-03-16T13:23:23;8.48;;;2.72;;
66972;SDS011;53902;51.466;-2.586;2023-03-16T13:26:00;8.77;;;2.13;;
66972;SDS011;53902;51.466;-2.586;2023-03-16T13:28:28;11.75;;;2.50;;
66972;SDS011;53902;51.466;-2.586;2023-03-16T13:30:55;8.15;;;2.20;;
66972;SDS011;53902;51.466;-2.586;2023-03-16T13:33:28;10.45;;;2.42;;
66972;SDS011;53902;51.466;-2.586;2023-03-16T13:35:58;8.02;;;2.17;;
66972;SDS011;53902;51.466;-2.586;2023-03-16T13:38:25;7.78;;;1.88;;
66972;SDS011;53902;51.466;-2.586;2023-03-16T13:41:04;14.23;;;3.08;;
66972;SDS011;53902;51.466;-2.586;2023-03-16T13:43:45;8.48;;;2.30;;
66972;SDS011;53902;51.466;-2.586;2023-03-16T13:46:14;9.63;;;2.15;;
66972;SDS011;53902;51.466;-2.586;2023-03-16T13:48:41;8.38;;;2.33;;
66972;SDS011;53902;51.466;-2.586;2023-03-16T13:51:11;10.80;;;2.27;;
66972;SDS011;53902;51.466;-2.586;2023-03-16T13:53:47;10.20;;;1.80;;
66972;SDS011;53902;51.466;-2.586;2023-03-16T13:56:24;10.20;;;1.90;;
66972;SDS011;53902;51.466;-2.586;2023-03-16T13:58:55;8.60;;;2.17;;
66972;SDS011;53902;51.466;-2.586;2023-03-16T14:01:30;6.88;;;2.00;;
66972;SDS011;53902;51.466;-2.586;2023-03-16T14:03:57;9.68;;;2.30;;
66972;SDS011;53902;51.466;-2.586;2023-03-16T14:06:28;10.88;;;2.35;;
66972;SDS011;53902;51.466;-2.586;2023-03-16T14:08:59;10.77;;;2.17;;
66972;SDS011;53902;51.466;-2.586;2023-03-16T14:11:33;9.13;;;2.45;;
66972;SDS011;53902;51.466;-2.586;2023-03-16T14:14:11;8.13;;;2.25;;
66972;SDS011;53902;51.466;-2.586;2023-03-16T14:16:41;11.63;;;2.33;;
66972;SDS011;53902;51.466;-2.586;2023-03-16T14:19:20;10.05;;;2.97;;
66972;SDS011;53902;51.466;-2.586;2023-03-16T14:21:52;8.15;;;2.33;;
66972;SDS011;53902;51.466;-2.586;2023-03-16T14:24:22;11.38;;;2.30;;
66972;SDS011;53902;51.466;-2.586;2023-03-16T14:29:49;9.80;;;2.58;;
66972;SDS011;53902;51.466;-2.586;2023-03-16T14:32:27;16.70;;;2.78;;
66972;SDS011;53902;51.466;-2.586;2023-03-16T14:35:16;11.35;;;2.80;;
66972;SDS011;53902;51.466;-2.586;2023-03-16T14:37:47;13.20;;;2.78;;
66972;SDS011;53902;51.466;-2.586;2023-03-16T14:40:24;13.23;;;3.10;;
66972;SDS011;53902;51.466;-2.586;2023-03-16T14:42:51;12.55;;;3.05;;
66972;SDS011;53902;51.466;-2.586;2023-03-16T14:45:17;15.77;;;3.08;;
66972;SDS011;53902;51.466;-2.586;2023-03-16T14:47:50;15.50;;;4.07;;
66972;SDS011;53902;51.466;-2.586;2023-03-16T14:50:21;16.13;;;3.63;;
66972;SDS011;53902;51.466;-2.586;2023-03-16T14:52:52;13.13;;;3.55;;
66972;SDS011;53902;51.466;-2.586;2023-03-16T14:55:22;16.85;;;4.15;;
66972;SDS011;53902;51.466;-2.586;2023-03-16T14:57:51;15.93;;;3.47;;
66972;SDS011;53902;51.466;-2.586;2023-03-16T15:00:18;11.40;;;3.58;;
66972;SDS011;53902;51.466;-2.586;2023-03-16T15:02:54;11.77;;;3.33;;
66972;SDS011;53902;51.466;-2.586;2023-03-16T15:05:23;12.25;;;3.20;;
66972;SDS011;53902;51.466;-2.586;2023-03-16T15:07:54;11.48;;;3.42;;
66972;SDS011;53902;51.466;-2.586;2023-03-16T15:12:49;12.35;;;3.45;;
66972;SDS011;53902;51.466;-2.586;2023-03-16T15:15:19;18.17;;;3.40;;
66972;SDS011;53902;51.466;-2.586;2023-03-16T15:17:49;17.38;;;3.33;;
66972;SDS011;53902;51.466;-2.586;2023-03-16T15:20:18;16.52;;;3.72;;
66972;SDS011;53902;51.466;-2.586;2023-03-16T15:22:47;15.55;;;3.42;;
66972;SDS011;53902;51.466;-2.586;2023-03-16T15:28:16;10.00;;;3.45;;
66972;SDS011;53902;51.466;-2.586;2023-03-16T15:30:47;9.45;;;3.95;;
66972;SDS011;53902;51.466;-2.586;2023-03-16T15:33:16;15.32;;;3.42;;
66972;SDS011;53902;51.466;-2.586;2023-03-16T15:35:45;12.02;;;3.15;;
66972;SDS011;53902;51.466;-2.586;2023-03-16T15:38:15;15.45;;;3.47;;
66972;SDS011;53902;51.466;-2.586;2023-03-16T15:40:50;17.77;;;3.60;;
66972;SDS011;53902;51.466;-2.586;2023-03-16T15:43:20;14.90;;;3.10;;
66972;SDS011;53902;51.466;-2.586;2023-03-16T15:45:50;19.15;;;3.42;;
66972;SDS011;53902;51.466;-2.586;2023-03-16T15:48:19;9.85;;;3.47;;
66972;SDS011;53902;51.466;-2.586;2023-03-16T15:50:51;12.73;;;3.20;;
66972;SDS011;53902;51.466;-2.586;2023-03-16T15:56:02;9.57;;;2.90;;
66972;SDS011;53902;51.466;-2.586;2023-03-16T15:58:29;18.15;;;3.08;;
66972;SDS011;53902;51.466;-2.586;2023-03-16T16:00:57;9.38;;;2.50;;
66972;SDS011;53902;51.466;-2.586;2023-03-16T16:03:26;12.68;;;3.70;;
66972;SDS011;53902;51.466;-2.586;2023-03-16T16:05:51;13.52;;;3.17;;
66972;SDS011;53902;51.466;-2.586;2023-03-16T16:08:20;14.57;;;3.40;;
66972;SDS011;53902;51.466;-2.586;2023-03-16T16:10:48;6.60;;;2.95;;
66972;SDS011;53902;51.466;-2.586;2023-03-16T16:15:53;15.38;;;3.15;;
66972;SDS011;53902;51.466;-2.586;2023-03-16T16:18:24;13.02;;;3.00;;
66972;SDS011;53902;51.466;-2.586;2023-03-16T16:20:52;17.70;;;3.33;;
66972;SDS011;53902;51.466;-2.586;2023-03-16T16:23:23;11.55;;;3.17;;
66972;SDS011;53902;51.466;-2.586;2023-03-16T16:25:49;13.27;;;3.10;;
66972;SDS011;53902;51.466;-2.586;2023-03-16T16:28:21;11.68;;;3.30;;
66972;SDS011;53902;51.466;-2.586;2023-03-16T16:30:48;9.98;;;3.40;;
66972;SDS011;53902;51.466;-2.586;2023-03-16T16:35:53;14.68;;;3.42;;
66972;SDS011;53902;51.466;-2.586;2023-03-16T16:38:23;10.90;;;2.90;;
66972;SDS011;53902;51.466;-2.586;2023-03-16T16:40:55;9.30;;;3.33;;
66972;SDS011;53902;51.466;-2.586;2023-03-16T16:43:28;11.00;;;3.00;;
66972;SDS011;53902;51.466;-2.586;2023-03-16T16:45:57;5.45;;;2.45;;
66972;SDS011;53902;51.466;-2.586;2023-03-16T16:48:32;7.95;;;2.95;;
66972;SDS011;53902;51.466;-2.586;2023-03-16T16:51:00;10.32;;;3.22;;
66972;SDS011;53902;51.466;-2.586;2023-03-16T16:55:56;8.65;;;3.08;;
66972;SDS011;53902;51.466;-2.586;2023-03-16T16:58:22;10.27;;;2.78;;
66972;SDS011;53902;51.466;-2.586;2023-03-16T17:01:05;9.65;;;3.30;;
66972;SDS011;53902;51.466;-2.586;2023-03-16T17:03:30;8.25;;;3.10;;
66972;SDS011;53902;51.466;-2.586;2023-03-16T17:08:25;7.85;;;2.70;;
66972;SDS011;53902;51.466;-2.586;2023-03-16T17:10:59;8.80;;;2.97;;
66972;SDS011;53902;51.466;-2.586;2023-03-16T17:13:26;5.38;;;2.75;;
66972;SDS011;53902;51.466;-2.586;2023-03-16T17:15:53;5.75;;;2.70;;
66972;SDS011;53902;51.466;-2.586;2023-03-16T17:18:19;5.35;;;2.45;;